SWR82L LSZH-LPPR
Flight info
| Callsign | SWR82L |
|---|---|
| Flight time | N/A |
| Altitude | 37000 |
| Route | VEBIT4S VEBIT T50 ROTOS Z669 ULMES DCT VADAR DCT NINTU/N0439F370 DCT MEBAK DCT REPSI DCT LERGA DCT MINSO DCT NARAK DCT AGN DCT LATEK DCT PPN DCT MIRPO DCT DGO DCT NEA DCT ZMR DCT ADORO DCT INKIT INKIT6C |
| Aircraft | A320/M-SDE3FGHIRWY/LB1 |
Departure
| Time | 2026-05-01 14:57 |
|---|---|
| Airport | Zürich Airport (LSZH) |
Arrival
| Time | N/A |
|---|---|
| Airport | Francisco de Sá Carneiro Airport (LPPR) |
| Time | Latitude | Longitude | Altitude | Speed | Heading |
|---|---|---|---|---|---|
| 2026-05-01 14:30 | 47.46044 | 8.55586 | 1401 ft | 0 kts | 6° |
| 2026-05-01 14:50 | 47.46001 | 8.55579 | 1410 ft | 4 kts | 5° |
| 2026-05-01 14:51 | 47.45978 | 8.55575 | 1400 ft | 4 kts | 18° |
| 2026-05-01 14:51 | 47.45962 | 8.55519 | 1400 ft | 4 kts | 103° |
| 2026-05-01 14:52 | 47.45965 | 8.55499 | 1400 ft | 0 kts | 96° |
| 2026-05-01 14:53 | 47.45965 | 8.55506 | 1400 ft | 4 kts | 96° |
| 2026-05-01 14:53 | 47.45960 | 8.55587 | 1401 ft | 12 kts | 92° |
| 2026-05-01 14:53 | 47.45952 | 8.55753 | 1409 ft | 19 kts | 96° |
| 2026-05-01 14:53 | 47.45934 | 8.55948 | 1413 ft | 19 kts | 97° |
| 2026-05-01 14:54 | 47.45920 | 8.56137 | 1412 ft | 18 kts | 95° |
| 2026-05-01 14:54 | 47.45908 | 8.56314 | 1413 ft | 17 kts | 96° |
| 2026-05-01 14:54 | 47.45864 | 8.56463 | 1418 ft | 15 kts | 134° |
| 2026-05-01 14:54 | 47.45805 | 8.56573 | 1423 ft | 13 kts | 111° |
| 2026-05-01 14:55 | 47.45790 | 8.56709 | 1425 ft | 13 kts | 91° |
| 2026-05-01 14:55 | 47.45786 | 8.56842 | 1422 ft | 13 kts | 96° |
| 2026-05-01 14:55 | 47.45771 | 8.56975 | 1424 ft | 14 kts | 110° |
| 2026-05-01 14:55 | 47.45693 | 8.57023 | 1425 ft | 14 kts | 204° |
| 2026-05-01 14:56 | 47.45668 | 8.56923 | 1423 ft | 0 kts | 274° |
| 2026-05-01 14:56 | 47.45668 | 8.56922 | 1423 ft | 1 kts | 274° |
| 2026-05-01 14:56 | 47.45689 | 8.56616 | 1426 ft | 70 kts | 276° |
| 2026-05-01 14:56 | 47.45770 | 8.55552 | 1403 ft | 135 kts | 276° |
| 2026-05-01 14:57 | 47.45897 | 8.53930 | 1567 ft | 168 kts | 278° |
| 2026-05-01 14:57 | 47.46200 | 8.50429 | 3013 ft | 173 kts | 277° |
| 2026-05-01 14:57 | 47.46293 | 8.48611 | 3517 ft | 186 kts | 268° |
| 2026-05-01 14:58 | 47.45794 | 8.46776 | 3790 ft | 207 kts | 230° |
| 2026-05-01 14:58 | 47.44724 | 8.45185 | 3983 ft | 232 kts | 223° |
| 2026-05-01 14:58 | 47.43488 | 8.43472 | 4342 ft | 256 kts | 223° |
| 2026-05-01 14:58 | 47.42181 | 8.41567 | 4917 ft | 269 kts | 229° |
| 2026-05-01 14:59 | 47.41010 | 8.39379 | 5727 ft | 273 kts | 234° |
| 2026-05-01 14:59 | 47.39919 | 8.37053 | 6314 ft | 277 kts | 236° |
| 2026-05-01 14:59 | 47.38869 | 8.34670 | 7223 ft | 277 kts | 240° |
| 2026-05-01 14:59 | 47.38016 | 8.32105 | 8048 ft | 280 kts | 243° |
| 2026-05-01 15:00 | 47.36245 | 8.26919 | 9635 ft | 288 kts | 241° |
| 2026-05-01 15:00 | 47.35311 | 8.24281 | 10392 ft | 292 kts | 240° |
| 2026-05-01 15:00 | 47.34333 | 8.21550 | 10742 ft | 312 kts | 240° |
| 2026-05-01 15:01 | 47.33281 | 8.18625 | 10995 ft | 332 kts | 240° |
| 2026-05-01 15:01 | 47.32188 | 8.15575 | 11593 ft | 339 kts | 241° |
| 2026-05-01 15:01 | 47.31084 | 8.12481 | 12280 ft | 343 kts | 241° |
| 2026-05-01 15:01 | 47.29971 | 8.09350 | 12998 ft | 346 kts | 240° |
| 2026-05-01 15:02 | 47.28848 | 8.06197 | 13729 ft | 350 kts | 240° |
| 2026-05-01 15:02 | 47.28096 | 8.04090 | 14168 ft | 352 kts | 240° |
| 2026-05-01 15:02 | 47.26612 | 7.99756 | 14971 ft | 358 kts | 246° |
| 2026-05-01 15:02 | 47.25663 | 7.96348 | 15566 ft | 361 kts | 246° |
| 2026-05-01 15:03 | 47.24707 | 7.92905 | 16147 ft | 365 kts | 246° |
| 2026-05-01 15:03 | 47.23739 | 7.89437 | 16744 ft | 369 kts | 246° |
| 2026-05-01 15:03 | 47.22756 | 7.85935 | 17340 ft | 372 kts | 246° |
| 2026-05-01 15:03 | 47.21762 | 7.82404 | 17909 ft | 375 kts | 246° |
| 2026-05-01 15:04 | 47.20770 | 7.78875 | 18456 ft | 380 kts | 247° |
| 2026-05-01 15:04 | 47.19755 | 7.75267 | 18961 ft | 383 kts | 246° |
| 2026-05-01 15:04 | 47.18520 | 7.71790 | 19466 ft | 385 kts | 236° |
| 2026-05-01 15:04 | 47.16911 | 7.68627 | 19961 ft | 388 kts | 231° |
| 2026-05-01 15:05 | 47.15223 | 7.65509 | 20440 ft | 392 kts | 231° |
| 2026-05-01 15:05 | 47.13516 | 7.62362 | 20957 ft | 395 kts | 231° |
| 2026-05-01 15:05 | 47.11802 | 7.59199 | 21468 ft | 398 kts | 231° |
| 2026-05-01 15:05 | 47.10068 | 7.56001 | 21937 ft | 402 kts | 231° |
| 2026-05-01 15:06 | 47.08320 | 7.52775 | 22422 ft | 405 kts | 231° |
| 2026-05-01 15:06 | 47.06562 | 7.49529 | 22961 ft | 407 kts | 232° |
| 2026-05-01 15:06 | 47.04791 | 7.46262 | 23429 ft | 411 kts | 232° |
| 2026-05-01 15:06 | 47.03002 | 7.42962 | 23857 ft | 415 kts | 232° |
| 2026-05-01 15:07 | 47.01203 | 7.39650 | 24268 ft | 417 kts | 232° |
| 2026-05-01 15:07 | 46.99388 | 7.36326 | 24708 ft | 417 kts | 231° |
| 2026-05-01 15:07 | 46.97565 | 7.33007 | 25113 ft | 419 kts | 231° |
| 2026-05-01 15:07 | 46.95725 | 7.29669 | 25526 ft | 420 kts | 231° |
| 2026-05-01 15:08 | 46.93896 | 7.26350 | 25917 ft | 421 kts | 231° |
| 2026-05-01 15:08 | 46.92058 | 7.23001 | 26300 ft | 423 kts | 231° |
| 2026-05-01 15:08 | 46.90218 | 7.19641 | 26686 ft | 424 kts | 231° |
| 2026-05-01 15:08 | 46.88369 | 7.16265 | 27061 ft | 426 kts | 231° |
| 2026-05-01 15:09 | 46.86516 | 7.12887 | 27414 ft | 427 kts | 231° |
| 2026-05-01 15:09 | 46.84655 | 7.09503 | 27771 ft | 429 kts | 231° |
| 2026-05-01 15:09 | 46.82775 | 7.06093 | 28125 ft | 430 kts | 231° |
| 2026-05-01 15:09 | 46.80890 | 7.02691 | 28468 ft | 432 kts | 231° |
| 2026-05-01 15:10 | 46.78996 | 6.99274 | 28802 ft | 434 kts | 231° |
| 2026-05-01 15:10 | 46.75190 | 6.92395 | 29446 ft | 437 kts | 231° |
| 2026-05-01 15:10 | 46.73281 | 6.88946 | 29789 ft | 437 kts | 231° |
| 2026-05-01 15:11 | 46.71367 | 6.85496 | 30122 ft | 438 kts | 231° |
| 2026-05-01 15:11 | 46.67516 | 6.78575 | 30642 ft | 441 kts | 231° |
| 2026-05-01 15:11 | 46.65628 | 6.75043 | 30877 ft | 443 kts | 236° |
| 2026-05-01 15:12 | 46.63998 | 6.71235 | 31108 ft | 444 kts | 238° |
| 2026-05-01 15:12 | 46.60802 | 6.63557 | 31671 ft | 443 kts | 238° |
| 2026-05-01 15:12 | 46.59223 | 6.59770 | 31995 ft | 442 kts | 238° |
| 2026-05-01 15:13 | 46.54451 | 6.48370 | 32958 ft | 438 kts | 238° |
| 2026-05-01 15:14 | 46.51289 | 6.40855 | 33662 ft | 434 kts | 239° |
| 2026-05-01 15:14 | 46.49713 | 6.37126 | 34011 ft | 432 kts | 239° |
| 2026-05-01 15:14 | 46.46586 | 6.29712 | 34588 ft | 430 kts | 239° |
| 2026-05-01 15:15 | 46.43468 | 6.22326 | 35059 ft | 429 kts | 239° |
| 2026-05-01 15:15 | 46.40346 | 6.14967 | 35482 ft | 428 kts | 239° |
| 2026-05-01 15:16 | 46.37226 | 6.07646 | 35902 ft | 426 kts | 240° |
| 2026-05-01 15:16 | 46.34134 | 6.00389 | 36282 ft | 426 kts | 240° |
| 2026-05-01 15:17 | 46.31020 | 5.93105 | 36836 ft | 421 kts | 240° |
| 2026-05-01 15:18 | 46.26424 | 5.82378 | 37255 ft | 419 kts | 240° |
| 2026-05-01 15:19 | 46.20274 | 5.68107 | 37246 ft | 418 kts | 240° |
| 2026-05-01 15:19 | 46.15650 | 5.57443 | 37246 ft | 418 kts | 240° |
| 2026-05-01 15:20 | 46.10839 | 5.46966 | 37245 ft | 417 kts | 237° |
| 2026-05-01 15:21 | 46.08058 | 5.41293 | 37246 ft | 417 kts | 236° |
| 2026-05-01 15:21 | 46.04714 | 5.34460 | 37241 ft | 417 kts | 237° |
| 2026-05-01 15:22 | 45.99210 | 5.23054 | 37227 ft | 418 kts | 237° |
| 2026-05-01 15:22 | 45.96436 | 5.17310 | 37224 ft | 418 kts | 237° |
| 2026-05-01 15:23 | 45.93111 | 5.10449 | 37224 ft | 418 kts | 237° |
| 2026-05-01 15:23 | 45.89811 | 5.03648 | 37225 ft | 418 kts | 237° |
| 2026-05-01 15:24 | 45.86433 | 4.96698 | 37221 ft | 425 kts | 237° |
| 2026-05-01 15:24 | 45.83029 | 4.89747 | 37221 ft | 431 kts | 236° |
| 2026-05-01 15:25 | 45.79557 | 4.82673 | 37221 ft | 436 kts | 236° |
| 2026-05-01 15:25 | 45.76057 | 4.75559 | 37221 ft | 437 kts | 236° |
| 2026-05-01 15:26 | 45.72550 | 4.68448 | 37227 ft | 437 kts | 236° |
| 2026-05-01 15:26 | 45.69044 | 4.61343 | 37228 ft | 436 kts | 236° |
| 2026-05-01 15:27 | 45.65537 | 4.54244 | 37225 ft | 437 kts | 236° |
| 2026-05-01 15:28 | 45.60286 | 4.43669 | 37221 ft | 437 kts | 236° |
| 2026-05-01 15:28 | 45.56764 | 4.36587 | 37221 ft | 437 kts | 236° |
| 2026-05-01 15:29 | 45.51469 | 4.25998 | 37229 ft | 437 kts | 235° |
| 2026-05-01 15:30 | 45.44397 | 4.11902 | 37221 ft | 437 kts | 235° |
| 2026-05-01 15:31 | 45.33767 | 3.90828 | 37246 ft | 438 kts | 235° |
| 2026-05-01 15:32 | 45.26614 | 3.76793 | 37247 ft | 439 kts | 234° |
| 2026-05-01 15:34 | 45.16107 | 3.55491 | 37234 ft | 439 kts | 236° |